createdAt,value
2019-03-08T00:00:39.758Z,75.40
2019-03-08T00:01:40.913Z,75.80
2019-03-08T00:02:42.148Z,76.50
2019-03-08T00:03:43.282Z,76.50
2019-03-08T00:04:44.660Z,77.10
2019-03-08T00:05:45.798Z,77.60
2019-03-08T00:06:46.953Z,76.90
2019-03-08T00:07:48.096Z,76.60
2019-03-08T00:08:49.224Z,77.00
2019-03-08T00:09:50.375Z,77.10
2019-03-08T00:10:51.538Z,77.40
2019-03-08T00:11:52.901Z,78.00
2019-03-08T00:12:54.374Z,77.90
2019-03-08T00:13:55.758Z,78.10
2019-03-08T00:14:56.983Z,79.60
2019-03-08T00:15:58.113Z,79.80
2019-03-08T00:16:59.261Z,81.30
2019-03-08T00:18:00.388Z,81.80
2019-03-08T00:19:01.520Z,81.90
2019-03-08T00:20:05.417Z,82.50
2019-03-08T00:21:06.901Z,83.60
2019-03-08T00:22:08.270Z,85.00
2019-03-08T00:23:09.484Z,85.10
2019-03-08T00:24:10.617Z,85.40
2019-03-08T00:25:13.258Z,85.10
2019-03-08T00:26:14.417Z,85.50
2019-03-08T00:27:15.656Z,84.90
2019-03-08T00:28:16.898Z,85.50
2019-03-08T00:29:18.122Z,84.50
2019-03-08T00:30:19.369Z,84.80
2019-03-08T00:31:20.512Z,84.60
2019-03-08T00:32:21.652Z,85.20
2019-03-08T00:33:23.040Z,85.60
2019-03-08T00:34:24.182Z,85.00
2019-03-08T00:35:25.560Z,85.60
2019-03-08T00:36:26.696Z,85.40
2019-03-08T00:37:27.897Z,85.30
2019-03-08T00:38:29.041Z,85.80
2019-03-08T00:39:30.289Z,85.50
2019-03-08T00:40:31.429Z,85.60
2019-03-08T00:41:32.904Z,85.00
2019-03-08T00:42:34.053Z,84.50
2019-03-08T00:43:35.283Z,84.10
2019-03-08T00:44:36.416Z,84.60
2019-03-08T00:45:37.544Z,84.40
2019-03-08T00:46:38.685Z,84.00
2019-03-08T00:47:40.089Z,83.80
2019-03-08T00:48:41.477Z,83.80
2019-03-08T00:49:42.613Z,83.80
2019-03-08T00:50:43.849Z,84.20
2019-03-08T00:51:45.241Z,84.00
2019-03-08T00:52:46.640Z,84.10
2019-03-08T00:53:47.773Z,84.20
2019-03-08T00:54:48.905Z,83.80
2019-03-08T00:55:50.296Z,83.60
2019-03-08T00:56:51.429Z,84.30
2019-03-08T00:57:52.585Z,83.50
2019-03-08T00:58:53.776Z,83.60
2019-03-08T00:59:54.996Z,83.70
2019-03-08T01:00:56.137Z,84.00
2019-03-08T01:01:57.536Z,84.20
2019-03-08T01:02:58.693Z,83.90
2019-03-08T01:03:59.839Z,83.90
2019-03-08T01:05:00.973Z,84.10
2019-03-08T01:06:02.462Z,84.20
2019-03-08T01:07:03.805Z,85.10
2019-03-08T01:08:04.955Z,84.60
2019-03-08T01:09:06.788Z,84.80
2019-03-08T01:10:11.435Z,84.70
2019-03-08T01:11:12.832Z,84.50
2019-03-08T01:12:13.985Z,84.60
2019-03-08T01:13:15.477Z,84.40
2019-03-08T01:14:16.877Z,84.30
2019-03-08T01:15:18.223Z,84.90
2019-03-08T01:16:19.576Z,85.00
2019-03-08T01:17:20.725Z,85.30
2019-03-08T01:18:21.884Z,85.40
2019-03-08T01:19:23.018Z,86.00
2019-03-08T01:20:24.361Z,85.90
2019-03-08T01:21:25.503Z,85.40
2019-03-08T01:22:26.646Z,85.50
2019-03-08T01:23:27.808Z,85.60
2019-03-08T01:24:28.949Z,85.40
2019-03-08T01:25:30.097Z,85.20
2019-03-08T01:26:31.479Z,85.30
2019-03-08T01:27:32.827Z,85.40
2019-03-08T01:28:34.500Z,85.70
2019-03-08T01:29:35.740Z,85.80
2019-03-08T01:30:38.412Z,86.40
2019-03-08T01:31:39.549Z,86.90
2019-03-08T01:32:40.693Z,87.70
2019-03-08T01:33:41.855Z,88.80
2019-03-08T01:34:43.084Z,89.40
2019-03-08T01:35:44.429Z,90.20
2019-03-08T01:36:45.572Z,90.30
2019-03-08T01:37:46.956Z,90.40
2019-03-08T01:38:48.173Z,90.50
2019-03-08T01:39:49.513Z,90.70
2019-03-08T01:40:51.188Z,90.60
2019-03-08T01:41:52.614Z,90.80
2019-03-08T01:42:53.754Z,90.80
2019-03-08T01:43:54.910Z,91.20
2019-03-08T01:44:56.329Z,90.80
2019-03-08T01:45:57.817Z,91.00
2019-03-08T01:46:58.971Z,91.00
2019-03-08T01:48:00.192Z,91.20
2019-03-08T01:49:01.444Z,91.20
2019-03-08T01:50:05.060Z,91.00
2019-03-08T01:51:06.192Z,91.00
2019-03-08T01:52:07.586Z,91.20
2019-03-08T01:53:08.737Z,91.20
2019-03-08T01:54:10.204Z,91.20
2019-03-08T01:55:11.621Z,91.30
2019-03-08T01:56:12.848Z,91.20
2019-03-08T01:57:13.978Z,91.20
2019-03-08T01:58:15.365Z,91.40
2019-03-08T01:59:16.613Z,90.90
2019-03-08T02:00:21.114Z,90.70
2019-03-08T02:01:22.493Z,90.80
2019-03-08T02:02:23.877Z,90.80
2019-03-08T02:03:25.014Z,90.60
2019-03-08T02:04:26.160Z,90.70
2019-03-08T02:05:27.305Z,90.50
2019-03-08T02:06:28.481Z,90.50
2019-03-08T02:07:29.617Z,90.60
2019-03-08T02:08:30.754Z,90.50
2019-03-08T02:09:32.011Z,90.40
2019-03-08T02:10:33.140Z,90.40
2019-03-08T02:11:34.329Z,90.40
2019-03-08T02:12:35.762Z,90.30
2019-03-08T02:13:37.152Z,90.30
2019-03-08T02:14:38.427Z,90.30
2019-03-08T02:15:39.561Z,90.30
2019-03-08T02:16:40.697Z,90.10
2019-03-08T02:17:41.932Z,90.00
2019-03-08T02:18:43.164Z,90.00
2019-03-08T02:19:44.610Z,90.30
2019-03-08T02:20:45.744Z,90.30
2019-03-08T02:21:46.886Z,90.70
2019-03-08T02:22:48.085Z,90.90
2019-03-08T02:23:49.317Z,90.90
2019-03-08T02:24:50.816Z,91.00
2019-03-08T02:25:51.953Z,91.30
2019-03-08T02:26:53.098Z,91.40
2019-03-08T02:27:54.556Z,91.60
2019-03-08T02:28:55.792Z,91.80
2019-03-08T02:29:56.933Z,91.90
2019-03-08T02:30:58.073Z,92.20
2019-03-08T02:31:59.218Z,92.40
2019-03-08T02:33:00.469Z,92.40
2019-03-08T02:34:01.601Z,92.80
2019-03-08T02:35:04.359Z,93.20
2019-03-08T02:36:05.595Z,93.30
2019-03-08T02:37:06.728Z,93.30
2019-03-08T02:38:08.001Z,93.60
2019-03-08T02:39:09.153Z,92.80
2019-03-08T02:40:34.029Z,93.40
2019-03-08T02:41:35.262Z,93.20
2019-03-08T02:42:36.402Z,92.60
2019-03-08T02:43:37.870Z,92.40
2019-03-08T02:44:39.009Z,92.30
2019-03-08T02:45:40.252Z,92.20
2019-03-08T02:46:41.396Z,92.40
2019-03-08T02:47:42.562Z,92.30
2019-03-08T02:48:43.715Z,92.20
2019-03-08T02:49:45.126Z,92.30
2019-03-08T02:50:46.272Z,92.20
2019-03-08T02:51:47.958Z,91.70
2019-03-08T02:52:49.105Z,91.20
2019-03-08T02:53:50.245Z,91.20
2019-03-08T02:54:51.404Z,91.10
2019-03-08T02:55:52.545Z,91.10
2019-03-08T02:56:53.693Z,91.30
2019-03-08T02:57:54.835Z,91.10
2019-03-08T02:58:55.980Z,90.60
2019-03-08T02:59:57.129Z,90.30
2019-03-08T03:00:58.365Z,90.30
2019-03-08T03:01:59.512Z,90.50
2019-03-08T03:03:00.646Z,90.40
2019-03-08T03:04:02.082Z,90.50
2019-03-08T03:05:04.848Z,90.50
2019-03-08T03:06:06.281Z,90.60
2019-03-08T03:07:07.425Z,90.50
2019-03-08T03:08:08.576Z,90.20
2019-03-08T03:09:09.807Z,90.20
2019-03-08T03:10:12.554Z,90.10
2019-03-08T03:11:13.899Z,90.20
2019-03-08T03:12:15.334Z,90.40
2019-03-08T03:13:16.771Z,90.40
2019-03-08T03:14:17.918Z,90.30
2019-03-08T03:15:19.341Z,90.30
2019-03-08T03:16:20.485Z,90.10
2019-03-08T03:17:21.629Z,90.10
2019-03-08T03:18:22.889Z,90.20
2019-03-08T03:19:24.088Z,90.20
2019-03-08T03:20:25.244Z,90.30
2019-03-08T03:21:26.582Z,90.20
2019-03-08T03:22:28.025Z,90.20
2019-03-08T03:23:29.169Z,90.40
2019-03-08T03:24:30.300Z,90.50
2019-03-08T03:25:31.466Z,90.60
2019-03-08T03:26:32.858Z,90.90
2019-03-08T03:27:34.271Z,91.30
2019-03-08T03:28:35.405Z,91.20
2019-03-08T03:29:36.544Z,91.60
2019-03-08T03:30:37.798Z,91.40
2019-03-08T03:31:39.061Z,91.40
2019-03-08T03:32:40.206Z,91.50
2019-03-08T03:33:41.446Z,91.50
2019-03-08T03:34:42.584Z,91.50
2019-03-08T03:35:43.742Z,91.40
2019-03-08T03:36:44.880Z,91.50
2019-03-08T03:37:46.027Z,91.30
2019-03-08T03:38:51.466Z,91.30
2019-03-08T03:39:52.617Z,91.30
2019-03-08T03:40:53.919Z,91.20
2019-03-08T03:41:55.056Z,91.40
2019-03-08T03:42:56.190Z,91.30
2019-03-08T03:43:57.339Z,91.40
2019-03-08T03:44:58.544Z,91.50
2019-03-08T03:45:59.692Z,91.60
2019-03-08T03:47:01.112Z,91.80
2019-03-08T03:48:02.557Z,91.80
2019-03-08T03:49:03.760Z,91.70
2019-03-08T03:50:10.308Z,91.70
2019-03-08T03:51:11.550Z,91.60
2019-03-08T03:52:13.028Z,91.70
2019-03-08T03:53:14.177Z,92.00
2019-03-08T03:54:15.321Z,91.90
2019-03-08T03:55:16.889Z,91.90
2019-03-08T03:56:18.032Z,91.80
2019-03-08T03:57:19.172Z,91.80
2019-03-08T03:58:20.309Z,91.90
2019-03-08T03:59:21.448Z,91.90
2019-03-08T04:00:23.005Z,91.90
2019-03-08T04:01:26.048Z,92.00
2019-03-08T04:02:27.185Z,92.20
2019-03-08T04:03:28.322Z,92.00
2019-03-08T04:04:29.461Z,91.90
2019-03-08T04:05:30.612Z,91.90
2019-03-08T04:06:31.764Z,91.80
2019-03-08T04:07:32.905Z,91.80
2019-03-08T04:08:34.044Z,91.70
2019-03-08T04:09:35.185Z,91.70
2019-03-08T04:10:36.705Z,91.60
2019-03-08T04:11:38.350Z,91.60
2019-03-08T04:12:39.624Z,91.70
2019-03-08T04:13:41.146Z,91.60
2019-03-08T04:14:42.317Z,91.60
2019-03-08T04:15:43.479Z,91.70
2019-03-08T04:16:44.616Z,91.70
2019-03-08T04:17:45.873Z,91.70
2019-03-08T04:18:47.813Z,91.60
2019-03-08T04:19:49.269Z,91.60
2019-03-08T04:20:50.625Z,91.60
2019-03-08T04:21:51.765Z,91.50
2019-03-08T04:22:52.961Z,91.50
2019-03-08T04:23:54.205Z,91.40
2019-03-08T04:24:55.350Z,91.30
2019-03-08T04:25:56.500Z,91.30
2019-03-08T04:26:57.649Z,91.20
2019-03-08T04:27:58.780Z,91.30
2019-03-08T04:28:59.925Z,91.20
2019-03-08T04:30:01.578Z,91.10
2019-03-08T04:31:02.848Z,91.00
2019-03-08T04:32:04.083Z,91.00
2019-03-08T04:33:05.242Z,90.70
2019-03-08T04:34:06.466Z,90.80
2019-03-08T04:35:07.812Z,90.70
2019-03-08T04:36:08.965Z,90.60
2019-03-08T04:37:10.153Z,90.50
2019-03-08T04:38:11.304Z,90.50
2019-03-08T04:39:12.810Z,90.50
2019-03-08T04:40:14.353Z,90.40
2019-03-08T04:41:15.492Z,90.40
2019-03-08T04:42:16.950Z,90.60
2019-03-08T04:43:18.080Z,90.40
2019-03-08T04:44:19.225Z,90.40
2019-03-08T04:45:20.367Z,90.30
2019-03-08T04:46:21.508Z,90.30
2019-03-08T04:47:22.649Z,90.30
2019-03-08T04:48:24.250Z,90.50
2019-03-08T04:49:25.407Z,90.50
2019-03-08T04:50:26.645Z,90.50
2019-03-08T04:51:28.065Z,90.30
2019-03-08T04:52:29.197Z,90.10
2019-03-08T04:53:30.392Z,90.20
2019-03-08T04:54:31.593Z,90.10
2019-03-08T04:55:32.761Z,89.90
2019-03-08T04:56:33.910Z,90.00
2019-03-08T04:57:35.062Z,90.00
2019-03-08T04:58:36.405Z,89.70
2019-03-08T04:59:37.554Z,89.90
2019-03-08T05:00:39.024Z,89.30
2019-03-08T05:01:40.207Z,89.40
2019-03-08T05:02:41.451Z,89.20
2019-03-08T05:03:42.591Z,89.50
2019-03-08T05:04:43.729Z,89.60
2019-03-08T05:05:44.915Z,89.70
2019-03-08T05:06:46.151Z,89.30
2019-03-08T05:07:47.485Z,89.40
2019-03-08T05:08:48.627Z,89.40
2019-03-08T05:09:50.115Z,89.30
2019-03-08T05:10:51.269Z,89.40
2019-03-08T05:11:52.421Z,89.70
2019-03-08T05:12:53.561Z,89.60
2019-03-08T05:13:54.707Z,89.50
2019-03-08T05:14:55.844Z,89.60
2019-03-08T05:15:56.996Z,89.80
2019-03-08T05:16:58.236Z,89.70
2019-03-08T05:17:59.368Z,89.70
2019-03-08T05:19:00.508Z,90.00
2019-03-08T05:20:01.652Z,90.00
2019-03-08T05:21:03.278Z,90.20
2019-03-08T05:22:04.421Z,90.10
2019-03-08T05:23:05.576Z,90.10
2019-03-08T05:24:06.704Z,90.10
2019-03-08T05:25:10.365Z,90.20
2019-03-08T05:26:11.529Z,90.20
2019-03-08T05:27:12.769Z,90.30
2019-03-08T05:28:13.916Z,90.30
2019-03-08T05:29:15.152Z,90.30
2019-03-08T05:30:16.982Z,90.50
2019-03-08T05:31:18.492Z,90.60
2019-03-08T05:32:19.938Z,90.60
2019-03-08T05:33:21.086Z,90.80
2019-03-08T05:34:22.514Z,91.10
2019-03-08T05:35:23.718Z,91.20
2019-03-08T05:36:24.941Z,91.30
2019-03-08T05:37:26.076Z,91.30
2019-03-08T05:38:27.222Z,91.40
2019-03-08T05:39:28.360Z,91.50
2019-03-08T05:40:29.516Z,91.10
2019-03-08T05:41:30.880Z,91.20
2019-03-08T05:42:32.053Z,91.30
2019-03-08T05:43:33.209Z,91.30
2019-03-08T05:44:34.406Z,91.20
2019-03-08T05:45:35.536Z,91.00
2019-03-08T05:46:36.689Z,90.90
2019-03-08T05:47:37.830Z,91.00
2019-03-08T05:48:39.006Z,90.80
2019-03-08T05:49:40.270Z,91.00
2019-03-08T05:50:41.466Z,91.00
2019-03-08T05:51:42.622Z,90.90
2019-03-08T05:52:43.764Z,90.80
2019-03-08T05:53:45.006Z,90.60
2019-03-08T05:54:46.406Z,90.60
2019-03-08T05:55:47.800Z,90.80
2019-03-08T05:56:48.961Z,90.90
2019-03-08T05:57:50.518Z,91.00
2019-03-08T05:58:51.661Z,90.90
2019-03-08T05:59:52.804Z,90.90
2019-03-08T06:00:55.464Z,90.80
2019-03-08T06:01:56.619Z,90.60
2019-03-08T06:02:57.760Z,91.00
2019-03-08T06:03:58.905Z,91.00
2019-03-08T06:05:00.386Z,91.20
2019-03-08T06:06:01.580Z,90.60
2019-03-08T06:07:02.738Z,90.60
2019-03-08T06:08:04.202Z,91.30
2019-03-08T06:09:06.235Z,90.90
2019-03-08T06:10:27.090Z,91.00
2019-03-08T06:11:28.297Z,91.10
2019-03-08T06:12:29.540Z,91.10
2019-03-08T06:13:30.669Z,91.20
2019-03-08T06:14:31.822Z,91.20
2019-03-08T06:15:33.326Z,91.30
2019-03-08T06:16:34.466Z,91.30
2019-03-08T06:17:35.816Z,91.30
2019-03-08T06:18:36.953Z,91.20
2019-03-08T06:19:38.089Z,91.10
2019-03-08T06:20:39.517Z,91.10
2019-03-08T06:21:40.696Z,91.10
2019-03-08T06:22:41.859Z,91.30
2019-03-08T06:23:42.985Z,91.30
2019-03-08T06:24:44.531Z,91.30
2019-03-08T06:25:45.685Z,91.10
2019-03-08T06:26:46.944Z,91.00
2019-03-08T06:27:48.078Z,91.00
2019-03-08T06:28:49.225Z,90.90
2019-03-08T06:29:50.625Z,90.90
2019-03-08T06:30:52.062Z,90.90
2019-03-08T06:31:53.237Z,90.90
2019-03-08T06:32:54.625Z,91.00
2019-03-08T06:33:55.766Z,91.10
2019-03-08T06:34:58.005Z,91.30
2019-03-08T06:35:59.250Z,91.80
2019-03-08T06:37:00.507Z,91.90
2019-03-08T06:38:01.941Z,92.10
2019-03-08T06:39:05.201Z,92.70
2019-03-08T06:40:11.526Z,93.30
2019-03-08T06:41:12.660Z,93.30
2019-03-08T06:42:13.818Z,93.60
2019-03-08T06:43:15.212Z,93.70
2019-03-08T06:44:16.348Z,93.80
2019-03-08T06:45:17.498Z,93.80
2019-03-08T06:46:18.953Z,93.90
2019-03-08T06:47:20.115Z,93.90
2019-03-08T06:48:21.248Z,94.00
2019-03-08T06:49:22.393Z,93.90
2019-03-08T06:50:23.536Z,94.40
2019-03-08T06:51:24.670Z,93.60
2019-03-08T06:52:25.822Z,93.50
2019-03-08T06:53:27.225Z,93.60
2019-03-08T06:54:28.368Z,93.20
2019-03-08T06:55:29.709Z,93.50
2019-03-08T06:56:30.849Z,93.20
2019-03-08T06:57:32.001Z,93.00
2019-03-08T06:58:36.140Z,93.00
2019-03-08T06:59:39.208Z,92.70
2019-03-08T07:00:42.350Z,92.60
2019-03-08T07:01:43.589Z,92.60
2019-03-08T07:02:44.745Z,92.60
2019-03-08T07:03:45.881Z,92.50
2019-03-08T07:04:47.018Z,92.80
2019-03-08T07:05:48.359Z,92.90
2019-03-08T07:06:49.509Z,93.00
2019-03-08T07:07:50.661Z,93.10
2019-03-08T07:08:51.914Z,92.90
2019-03-08T07:09:53.257Z,93.00
2019-03-08T07:10:54.801Z,92.80
2019-03-08T07:11:56.225Z,92.60
2019-03-08T07:13:03.375Z,92.50
2019-03-08T07:14:00.716Z,92.50
2019-03-08T07:15:03.623Z,92.70
2019-03-08T07:16:12.795Z,92.50
2019-03-08T07:17:08.345Z,92.60
2019-03-08T07:18:12.983Z,92.50
2019-03-08T07:19:12.535Z,92.60
2019-03-08T07:20:31.974Z,92.20
2019-03-08T07:21:35.336Z,92.10
2019-03-08T07:22:50.285Z,92.20
2019-03-08T07:23:53.325Z,92.40
2019-03-08T07:25:08.698Z,92.10
2019-03-08T07:26:11.856Z,91.90
2019-03-08T07:27:33.297Z,91.40
2019-03-08T07:28:39.190Z,91.40
2019-03-08T07:29:51.334Z,91.90
2019-03-08T07:30:58.205Z,91.20
2019-03-08T07:32:06.981Z,91.10
2019-03-08T07:33:10.039Z,91.10
2019-03-08T07:34:15.971Z,91.10
2019-03-08T07:35:35.809Z,91.10
2019-03-08T07:36:55.497Z,91.20
2019-03-08T07:38:01.320Z,91.00
2019-03-08T07:39:09.758Z,91.10
2019-03-08T07:40:31.150Z,91.30
2019-03-08T07:41:37.009Z,91.10
2019-03-08T07:42:42.833Z,91.10
2019-03-08T07:43:45.935Z,91.00
2019-03-08T07:44:51.836Z,90.90
2019-03-08T07:45:54.996Z,91.00
2019-03-08T07:47:00.609Z,90.90
2019-03-08T07:48:09.447Z,91.10
2019-03-08T07:49:15.348Z,91.40
2019-03-08T07:50:20.900Z,91.40
2019-03-08T07:51:24.339Z,91.50
2019-03-08T07:52:36.809Z,91.60
2019-03-08T07:53:40.140Z,91.40
2019-03-08T07:54:52.491Z,91.50
2019-03-08T07:55:48.138Z,91.30
2019-03-08T07:57:07.951Z,91.00
2019-03-08T07:58:11.010Z,90.80
2019-03-08T07:59:20.157Z,90.80
2019-03-08T08:01:44.030Z,90.50
2019-03-08T08:02:53.182Z,90.30
2019-03-08T08:03:56.245Z,90.60
2019-03-08T08:05:02.250Z,90.80
2019-03-08T08:06:20.151Z,91.20
2019-03-08T08:07:23.194Z,91.80
2019-03-08T08:08:26.590Z,91.30
2019-03-08T08:09:29.641Z,92.00
2019-03-08T08:10:48.061Z,91.90
2019-03-08T08:11:59.933Z,91.80
2019-03-08T08:13:19.758Z,92.50
2019-03-08T08:14:40.000Z,92.60
2019-03-08T08:15:48.978Z,92.70
2019-03-08T08:16:57.885Z,92.50
2019-03-08T08:18:04.129Z,92.70
2019-03-08T08:19:07.457Z,93.00
2019-03-08T08:20:20.765Z,93.10
2019-03-08T08:21:23.917Z,92.90
2019-03-08T08:22:32.672Z,92.60
2019-03-08T08:23:36.181Z,92.80
2019-03-08T08:24:42.925Z,92.70
2019-03-08T08:25:46.475Z,92.70
2019-03-08T08:27:01.947Z,92.80
2019-03-08T08:28:07.853Z,92.50
2019-03-08T08:29:34.983Z,92.60
2019-03-08T08:30:36.884Z,92.60
2019-03-08T08:31:48.600Z,92.40
2019-03-08T08:33:08.156Z,92.60
2019-03-08T08:34:11.202Z,92.70
2019-03-08T08:35:17.155Z,92.10
2019-03-08T08:36:28.745Z,92.10
2019-03-08T08:37:37.949Z,92.50
2019-03-08T08:38:43.827Z,92.00
2019-03-08T08:40:01.807Z,91.90
2019-03-08T08:41:07.654Z,92.10
2019-03-08T08:42:16.648Z,91.70
2019-03-08T08:43:36.575Z,91.70
2019-03-08T08:44:42.406Z,91.90
2019-03-08T08:45:50.994Z,91.30
2019-03-08T08:46:54.034Z,91.50
2019-03-08T08:47:59.964Z,91.10
2019-03-08T08:49:19.394Z,91.20
2019-03-08T08:50:25.306Z,91.10
2019-03-08T08:51:28.725Z,91.10
2019-03-08T08:52:40.800Z,90.80
2019-03-08T08:54:01.833Z,91.10
2019-03-08T08:55:08.672Z,91.10
2019-03-08T08:56:23.589Z,90.60
2019-03-08T08:57:38.659Z,90.60
2019-03-08T08:58:47.607Z,90.70
2019-03-08T08:59:50.661Z,90.20
2019-03-08T09:00:59.735Z,90.50
2019-03-08T09:02:19.233Z,90.20
2019-03-08T09:03:22.550Z,90.00
2019-03-08T09:04:26.042Z,89.40
2019-03-08T09:05:29.080Z,90.10
2019-03-08T09:06:47.207Z,90.00
2019-03-08T09:07:50.349Z,89.90
2019-03-08T09:09:02.207Z,89.80
2019-03-08T09:10:09.309Z,89.50
2019-03-08T09:11:18.044Z,88.90
2019-03-08T09:12:21.083Z,89.20
2019-03-08T09:13:26.899Z,89.10
2019-03-08T09:14:30.325Z,89.40
2019-03-08T09:15:35.988Z,89.30
2019-03-08T09:16:47.914Z,89.60
2019-03-08T09:18:00.128Z,90.30
2019-03-08T09:19:08.769Z,89.60
2019-03-08T09:20:17.883Z,89.60
2019-03-08T09:21:37.487Z,89.30
2019-03-08T09:22:57.594Z,89.90
2019-03-08T09:24:18.558Z,89.80
2019-03-08T09:25:24.359Z,89.50
2019-03-08T09:26:33.660Z,89.40
2019-03-08T09:27:39.228Z,89.10
2019-03-08T09:28:42.684Z,89.40
2019-03-08T09:29:51.620Z,90.00
2019-03-08T09:30:57.681Z,90.10
2019-03-08T09:32:03.801Z,90.10
2019-03-08T09:33:06.947Z,89.90
2019-03-08T09:34:18.679Z,89.40
2019-03-08T09:35:22.048Z,90.00
2019-03-08T09:36:27.995Z,88.00
2019-03-08T09:37:47.705Z,88.80
2019-03-08T09:39:05.893Z,89.30
2019-03-08T09:40:28.574Z,89.90
2019-03-08T09:41:34.402Z,90.00
2019-03-08T09:42:46.239Z,89.90
2019-03-08T09:44:01.629Z,89.10
2019-03-08T09:45:24.484Z,88.30
2019-03-08T09:46:30.036Z,88.60
2019-03-08T09:47:42.133Z,89.60
2019-03-08T09:48:50.725Z,89.00
2019-03-08T09:50:05.653Z,90.00
2019-03-08T09:51:15.084Z,90.00
2019-03-08T09:52:30.078Z,89.60
2019-03-08T09:53:33.204Z,89.50
2019-03-08T09:54:39.582Z,88.50
2019-03-08T09:55:45.422Z,88.60
2019-03-08T09:56:54.313Z,87.90
2019-03-08T09:57:57.621Z,86.50
2019-03-08T09:59:01.009Z,86.60
2019-03-08T10:00:30.266Z,85.80
2019-03-08T10:01:48.785Z,86.40
2019-03-08T10:02:54.734Z,85.60
2019-03-08T10:04:03.801Z,85.50
2019-03-08T10:05:12.897Z,83.40
2019-03-08T10:06:16.072Z,82.20
2019-03-08T10:07:34.276Z,81.30
2019-03-08T10:08:40.106Z,81.10
2019-03-08T10:09:55.350Z,80.60
2019-03-08T10:10:58.514Z,80.60
2019-03-08T10:12:04.367Z,79.40
2019-03-08T10:13:13.112Z,79.30
2019-03-08T10:14:16.473Z,78.90
2019-03-08T10:15:37.702Z,78.80
2019-03-08T10:16:43.353Z,78.50
2019-03-08T10:17:55.357Z,77.50
2019-03-08T10:19:01.024Z,76.80
2019-03-08T10:20:23.887Z,76.50
2019-03-08T10:21:39.460Z,75.40
2019-03-08T10:22:48.513Z,75.30
2019-03-08T10:23:54.080Z,74.90
2019-03-08T10:24:57.143Z,75.60
2019-03-08T10:26:17.060Z,75.20
2019-03-08T10:27:25.681Z,76.10
2019-03-08T10:28:34.706Z,80.10
2019-03-08T10:29:37.782Z,82.60
2019-03-08T10:30:41.146Z,84.10
2019-03-08T10:31:54.268Z,84.80
2019-03-08T10:32:57.393Z,85.50
2019-03-08T10:34:15.516Z,86.80
2019-03-08T10:35:30.609Z,87.90
2019-03-08T10:36:48.448Z,86.00
2019-03-08T10:38:00.753Z,85.50
2019-03-08T10:39:16.652Z,86.60
2019-03-08T10:40:19.709Z,88.30
2019-03-08T10:41:25.594Z,89.90
2019-03-08T10:42:34.732Z,89.70
2019-03-08T10:43:40.367Z,90.00
2019-03-08T10:44:52.254Z,90.20
2019-03-08T10:46:15.361Z,90.60
2019-03-08T10:47:15.578Z,90.50
2019-03-08T10:48:21.204Z,90.30
2019-03-08T10:49:42.373Z,90.20
2019-03-08T10:50:54.296Z,89.40
2019-03-08T10:51:57.605Z,89.30
2019-03-08T10:53:00.651Z,88.50
2019-03-08T10:54:09.838Z,89.30
2019-03-08T10:55:22.325Z,89.10
2019-03-08T10:56:38.366Z,88.80
2019-03-08T10:57:56.548Z,87.70
2019-03-08T10:59:05.275Z,86.40
2019-03-08T11:00:14.888Z,85.60
2019-03-08T11:01:30.013Z,86.70
2019-03-08T11:02:49.643Z,87.10
2019-03-08T11:03:58.757Z,86.90
2019-03-08T11:05:02.159Z,87.60
2019-03-08T11:06:05.213Z,87.20
2019-03-08T11:07:13.819Z,87.10
2019-03-08T11:08:33.754Z,87.90
2019-03-08T11:09:51.968Z,87.00
2019-03-08T11:11:05.922Z,85.80
2019-03-08T11:12:20.874Z,85.90
2019-03-08T11:13:43.322Z,85.70
2019-03-08T11:14:50.998Z,85.70
2019-03-08T11:15:56.864Z,86.00
2019-03-08T11:17:05.821Z,86.90
2019-03-08T11:18:15.048Z,85.30
2019-03-08T11:19:18.543Z,85.90
2019-03-08T11:20:24.141Z,85.60
2019-03-08T11:21:33.005Z,85.40
2019-03-08T11:22:36.049Z,84.10
2019-03-08T11:23:39.100Z,83.70
2019-03-08T11:24:44.885Z,85.00
2019-03-08T11:25:49.083Z,84.40
2019-03-08T11:27:07.428Z,83.80
2019-03-08T11:28:22.269Z,83.40
2019-03-08T11:29:28.641Z,82.40
2019-03-08T11:30:31.712Z,81.80
2019-03-08T11:31:46.544Z,81.10
2019-03-08T11:32:49.954Z,81.40
2019-03-08T11:34:09.751Z,81.20
2019-03-08T11:35:28.164Z,81.90
2019-03-08T11:36:33.760Z,81.20
2019-03-08T11:37:39.845Z,80.00
2019-03-08T11:38:43.185Z,80.30
2019-03-08T11:39:51.972Z,79.30
2019-03-08T11:41:14.532Z,77.90
2019-03-08T11:42:26.849Z,78.40
2019-03-08T11:43:45.322Z,76.40
2019-03-08T11:44:54.137Z,77.20
2019-03-08T11:46:00.197Z,76.90
2019-03-08T11:47:06.405Z,77.10
2019-03-08T11:48:26.223Z,76.80
2019-03-08T11:49:35.149Z,76.00
2019-03-08T11:50:54.512Z,76.70
2019-03-08T11:51:57.564Z,77.70
2019-03-08T11:53:17.636Z,76.30
2019-03-08T11:54:40.530Z,76.40
2019-03-08T11:55:43.333Z,74.00
2019-03-08T11:57:04.365Z,75.00
2019-03-08T11:58:24.031Z,76.40
2019-03-08T11:59:36.188Z,72.50
2019-03-08T12:00:39.338Z,70.90
2019-03-08T12:01:54.355Z,69.00
2019-03-08T12:02:57.662Z,70.40
2019-03-08T12:04:15.907Z,71.80
2019-03-08T12:05:24.677Z,72.30
2019-03-08T12:06:39.810Z,73.50
2019-03-08T12:07:42.865Z,74.50
2019-03-08T12:08:45.912Z,73.40
2019-03-08T12:09:48.961Z,73.90
2019-03-08T12:11:07.942Z,74.50
2019-03-08T12:12:27.658Z,74.70
2019-03-08T12:13:32.263Z,75.50
2019-03-08T12:14:44.281Z,74.50
2019-03-08T12:15:47.668Z,70.90
2019-03-08T12:16:50.725Z,70.30
2019-03-08T12:18:02.669Z,71.40
2019-03-08T12:19:22.406Z,72.00
2019-03-08T12:20:28.677Z,72.60
2019-03-08T12:21:34.303Z,73.10
2019-03-08T12:22:37.358Z,72.60
2019-03-08T12:23:45.944Z,71.90
2019-03-08T12:24:55.079Z,71.60
2019-03-08T12:26:15.186Z,69.70
2019-03-08T12:27:21.030Z,70.50
2019-03-08T12:28:24.097Z,72.40
2019-03-08T12:29:27.012Z,68.10
2019-03-08T12:30:29.949Z,65.50
2019-03-08T12:31:38.958Z,65.00
2019-03-08T12:32:44.693Z,64.40
2019-03-08T12:33:47.742Z,65.30
2019-03-08T12:34:50.982Z,65.10
2019-03-08T12:35:59.576Z,64.50
2019-03-08T12:37:05.175Z,66.00
2019-03-08T12:38:08.228Z,67.10
2019-03-08T12:39:17.421Z,66.90
2019-03-08T12:40:20.471Z,68.00
2019-03-08T12:41:32.137Z,67.90
2019-03-08T12:42:52.012Z,68.90
2019-03-08T12:44:10.128Z,69.50
2019-03-08T12:45:13.422Z,70.00
2019-03-08T12:46:31.681Z,70.00
2019-03-08T12:47:37.545Z,69.80
2019-03-08T12:48:57.046Z,70.90
2019-03-08T12:50:09.056Z,75.50
2019-03-08T12:51:12.108Z,79.20
2019-03-08T12:52:15.189Z,81.10
2019-03-08T12:53:33.498Z,81.40
2019-03-08T12:54:39.597Z,83.10
2019-03-08T12:56:00.929Z,83.50
2019-03-08T12:57:13.019Z,84.50
2019-03-08T12:58:21.911Z,85.80
2019-03-08T12:59:24.963Z,86.70
2019-03-08T13:00:33.991Z,85.80
2019-03-08T13:01:37.489Z,86.70
2019-03-08T13:02:55.973Z,86.30
2019-03-08T13:04:15.672Z,86.80
2019-03-08T13:05:24.644Z,86.90
2019-03-08T13:06:27.698Z,87.90
2019-03-08T13:07:30.752Z,87.50
2019-03-08T13:08:36.579Z,86.00
2019-03-08T13:09:39.631Z,85.70
2019-03-08T13:10:40.786Z,86.30
2019-03-08T13:11:41.916Z,86.40
2019-03-08T13:12:43.076Z,87.00
2019-03-08T13:13:44.308Z,88.00
2019-03-08T13:14:45.901Z,89.30
2019-03-08T13:15:47.160Z,89.70
2019-03-08T13:16:48.306Z,89.40
2019-03-08T13:17:49.461Z,89.50
2019-03-08T13:18:50.957Z,90.00
2019-03-08T13:19:52.098Z,90.10
2019-03-08T13:20:53.566Z,90.30
2019-03-08T13:21:54.975Z,90.30
2019-03-08T13:22:56.138Z,90.60
2019-03-08T13:23:57.377Z,90.90
2019-03-08T13:24:58.610Z,91.20
2019-03-08T13:25:59.758Z,90.90
2019-03-08T13:27:01.260Z,91.10
2019-03-08T13:28:02.400Z,90.80
2019-03-08T13:29:03.544Z,91.30
2019-03-08T13:30:13.713Z,91.20
2019-03-08T13:31:14.862Z,90.60
2019-03-08T13:32:16.336Z,90.70
2019-03-08T13:33:17.617Z,90.40
2019-03-08T13:34:18.777Z,90.50
2019-03-08T13:35:20.021Z,89.50
2019-03-08T13:36:24.603Z,90.00
2019-03-08T13:37:25.735Z,90.30
2019-03-08T13:38:27.239Z,88.20
2019-03-08T13:39:28.779Z,88.20
2019-03-08T13:40:30.218Z,88.50
2019-03-08T13:41:31.654Z,87.30
2019-03-08T13:42:32.808Z,87.80
2019-03-08T13:43:33.954Z,88.80
2019-03-08T13:44:35.092Z,88.50
2019-03-08T13:45:36.441Z,88.10
2019-03-08T13:46:37.932Z,88.60
2019-03-08T13:47:39.145Z,86.40
2019-03-08T13:48:40.316Z,85.90
2019-03-08T13:49:41.537Z,86.80
2019-03-08T13:50:42.691Z,86.50
2019-03-08T13:51:44.112Z,83.80
2019-03-08T13:52:45.253Z,81.80
2019-03-08T13:53:46.561Z,79.20
2019-03-08T13:54:47.817Z,80.20